Time;durP1;ratioP1;P1;durP2;ratioP2;P2;SDS_P1;SDS_P2;PMS_P1;PMS_P2;Temp;Humidity;BMP_temperature;BMP_pressure;BME280_temperature;BME280_humidity;BME280_pressure;Samples;Min_cycle;Max_cycle;Signal;HPM_P1;HPM_P2
2022/08/17 00:00:46;;;;;;;25.65;16.05;;;25.20;64.30;;;;;;4952835;28;20034;-77
2022/08/17 00:03:29;;;;;;;21.70;15.70;;;25.20;64.20;;;;;;4952935;28;20518;-77
2022/08/17 00:05:57;;;;;;;24.98;15.20;;;25.20;64.30;;;;;;4934953;28;20035;-76
2022/08/17 00:08:36;;;;;;;21.45;14.23;;;25.20;63.90;;;;;;4937419;28;20031;-76
2022/08/17 00:11:10;;;;;;;41.90;34.55;;;25.20;63.90;;;;;;4953452;28;20038;-77
2022/08/17 00:13:46;;;;;;;60.78;51.20;;;25.20;63.50;;;;;;4952899;28;20038;-77
2022/08/17 00:16:17;;;;;;;56.85;46.85;;;25.20;63.30;;;;;;4952346;28;20065;-77
2022/08/17 00:18:44;;;;;;;41.30;31.63;;;25.10;63.20;;;;;;4936031;28;20047;-77
2022/08/17 00:21:13;;;;;;;;;;;25.10;63.10;;;;;;4948213;28;20154;-76
2022/08/17 00:23:41;;;;;;;24.48;16.52;;;25.10;63.10;;;;;;4969966;28;19932;-76
2022/08/17 00:26:08;;;;;;;21.80;15.77;;;25.10;63.20;;;;;;4968611;28;20050;-76
2022/08/17 00:28:34;;;;;;;23.45;15.95;;;25.10;63.30;;;;;;4967203;23;20030;-71
2022/08/17 00:31:00;;;;;;;22.08;13.85;;;25.10;63.50;;;;;;4990277;28;20042;-71
2022/08/17 00:33:29;;;;;;;20.30;15.02;;;25.10;63.70;;;;;;4958241;28;20034;-71
2022/08/17 00:35:57;;;;;;;22.35;14.23;;;25.10;63.70;;;;;;4971278;28;20034;-71
2022/08/17 00:38:24;;;;;;;22.25;15.20;;;25.10;63.50;;;;;;4956707;28;20551;-71
2022/08/17 00:41:00;;;;;;;20.95;14.50;;;25.10;63.70;;;;;;4988247;28;20169;-71
2022/08/17 00:43:25;;;;;;;20.13;14.77;;;25.10;63.70;;;;;;4970819;28;20038;-71
2022/08/17 00:45:52;;;;;;;23.70;13.77;;;25.10;63.50;;;;;;4954880;28;20044;-71
2022/08/17 00:48:19;;;;;;;21.10;13.75;;;25.10;63.20;;;;;;4971810;28;20034;-71
2022/08/17 00:51:06;;;;;;;19.17;13.13;;;25.20;63.20;;;;;;4971502;28;20053;-71
2022/08/17 00:53:36;;;;;;;18.35;12.80;;;25.10;62.80;;;;;;4955553;28;20156;-71
2022/08/17 00:56:05;;;;;;;17.98;12.90;;;25.10;62.50;;;;;;4970543;28;20434;-70
2022/08/17 00:58:32;;;;;;;18.73;12.73;;;25.10;62.50;;;;;;4971111;28;20033;-71
2022/08/17 01:01:02;;;;;;;18.42;12.65;;;25.00;62.70;;;;;;4955624;28;20442;-71
2022/08/17 01:03:29;;;;;;;17.88;12.93;;;25.00;62.80;;;;;;4988930;28;20034;-71
2022/08/17 01:05:57;;;;;;;17.55;13.48;;;25.00;62.80;;;;;;4954625;28;20034;-71
2022/08/17 01:08:27;;;;;;;21.85;12.60;;;25.00;62.90;;;;;;4989076;28;20114;-71
2022/08/17 01:10:55;;;;;;;19.55;13.68;;;24.90;62.90;;;;;;4971893;28;20044;-71
2022/08/17 01:13:24;;;;;;;19.65;13.02;;;24.90;62.90;;;;;;4939447;28;20125;-71
2022/08/17 01:15:56;;;;;;;20.13;12.63;;;24.90;63.00;;;;;;4991978;28;20031;-71
2022/08/17 01:18:22;;;;;;;20.02;13.10;;;24.90;63.00;;;;;;4992778;28;20402;-70
2022/08/17 01:20:50;;;;;;;20.20;12.70;;;24.90;63.20;;;;;;4992199;28;20022;-71
2022/08/17 01:23:19;;;;;;;19.20;13.70;;;25.00;63.20;;;;;;4958163;28;20058;-71
2022/08/17 01:25:49;;;;;;;16.92;12.32;;;25.00;63.20;;;;;;4957703;28;20466;-71
2022/08/17 01:28:15;;;;;;;;;;;25.00;63.30;;;;;;4975593;28;20030;-70
2022/08/17 01:30:41;;;;;;;18.63;13.15;;;25.00;63.20;;;;;;4940897;28;19914;-71
2022/08/17 01:33:10;;;;;;;18.20;12.55;;;25.00;63.30;;;;;;4953861;28;20035;-71
2022/08/17 01:35:37;;;;;;;19.25;13.48;;;25.00;63.40;;;;;;4957356;28;20031;-70
2022/08/17 01:38:03;;;;;;;19.90;12.82;;;25.00;63.50;;;;;;4976030;28;20046;-70
2022/08/17 01:40:37;;;;;;;19.45;12.63;;;25.00;63.50;;;;;;4988800;28;20014;-70
2022/08/17 01:43:14;;;;;;;20.83;12.35;;;25.00;63.60;;;;;;4960928;28;20491;-71
2022/08/17 01:45:45;;;;;;;18.55;12.57;;;25.00;63.70;;;;;;4995510;28;20058;-71
2022/08/17 01:48:12;;;;;;;49.58;36.20;;;25.00;63.70;;;;;;4995936;28;20027;-71
2022/08/17 01:50:41;;;;;;;81.50;69.13;;;25.00;63.70;;;;;;4962837;28;20042;-70
2022/08/17 01:53:16;;;;;;;71.45;61.75;;;25.00;63.80;;;;;;4962678;28;20034;-71
2022/08/17 01:55:49;;;;;;;49.22;38.42;;;24.90;63.90;;;;;;4977500;28;20113;-71
2022/08/17 01:58:15;;;;;;;25.95;19.42;;;24.90;64.10;;;;;;4995381;28;20169;-71
2022/08/17 02:00:45;;;;;;;21.00;16.07;;;24.90;64.20;;;;;;4978440;28;20553;-71
2022/08/17 02:03:11;;;;;;;20.50;14.95;;;25.00;64.30;;;;;;4995415;28;20026;-71
2022/08/17 02:05:38;;;;;;;17.98;12.82;;;25.00;64.30;;;;;;4994738;28;20034;-71
2022/08/17 02:08:06;;;;;;;22.48;13.88;;;25.00;64.40;;;;;;4977827;28;20031;-71
2022/08/17 02:10:32;;;;;;;19.13;14.20;;;24.90;64.40;;;;;;4995030;28;20084;-71
2022/08/17 02:12:59;;;;;;;19.45;12.80;;;24.90;64.70;;;;;;4977649;28;20041;-71
2022/08/17 02:15:25;;;;;;;19.45;12.73;;;24.90;64.70;;;;;;4976962;28;20019;-71
2022/08/17 02:17:51;;;;;;;18.70;12.98;;;25.00;64.60;;;;;;4994834;28;20183;-71
2022/08/17 02:20:17;;;;;;;19.63;13.35;;;25.00;64.50;;;;;;4961705;28;20030;-71
2022/08/17 02:22:46;;;;;;;24.20;12.95;;;24.90;64.70;;;;;;4977741;28;20471;-71
2022/08/17 02:25:16;;;;;;;19.20;13.65;;;24.90;65.00;;;;;;4993826;28;20443;-71
2022/08/17 02:27:42;;;;;;;19.02;13.18;;;24.80;65.00;;;;;;4977562;28;20045;-71
2022/08/17 02:30:11;;;;;;;17.98;12.25;;;24.80;65.10;;;;;;4961433;28;20081;-71
2022/08/17 02:32:37;;;;;;;16.75;11.98;;;24.80;65.30;;;;;;4961423;28;20053;-71
2022/08/17 02:35:04;;;;;;;22.20;12.93;;;24.80;65.20;;;;;;4994301;28;20031;-71
2022/08/17 02:37:30;;;;;;;17.60;12.43;;;24.80;65.30;;;;;;4976780;28;20036;-71
2022/08/17 02:39:58;;;;;;;20.30;12.45;;;24.80;65.60;;;;;;4961309;28;20105;-71
2022/08/17 02:42:30;;;;;;;19.10;12.90;;;24.70;65.90;;;;;;4977445;28;20034;-71
2022/08/17 02:44:56;;;;;;;20.15;12.52;;;24.70;66.10;;;;;;4993383;28;20058;-71
2022/08/17 02:47:22;;;;;;;17.63;12.98;;;24.70;66.10;;;;;;4993731;28;20026;-71
2022/08/17 02:49:48;;;;;;;19.52;12.85;;;24.80;65.80;;;;;;4945354;28;20494;-72
2022/08/17 02:52:14;;;;;;;19.33;12.18;;;24.80;66.00;;;;;;4976987;28;20038;-71
2022/08/17 02:54:40;;;;;;;16.40;12.20;;;24.70;66.10;;;;;;4994351;28;20030;-71
2022/08/17 02:57:06;;;;;;;20.15;12.90;;;24.70;66.10;;;;;;4976355;28;20038;-71
2022/08/17 02:59:32;;;;;;;18.83;12.57;;;24.70;65.70;;;;;;4994226;28;20479;-72
2022/08/17 03:01:57;;;;;;;21.50;12.95;;;24.70;65.50;;;;;;4977043;28;20437;-71
2022/08/17 03:04:23;;;;;;;20.45;12.85;;;24.80;65.50;;;;;;4961209;28;20045;-72
2022/08/17 03:06:49;;;;;;;18.70;12.88;;;24.80;65.40;;;;;;4975912;28;20027;-71
2022/08/17 03:09:15;;;;;;;17.40;12.75;;;24.80;65.30;;;;;;4976661;28;20109;-71
2022/08/17 03:11:41;;;;;;;18.90;12.98;;;24.80;65.30;;;;;;4993974;28;20364;-71
2022/08/17 03:14:07;;;;;;;19.65;13.10;;;24.80;65.40;;;;;;4960534;28;20077;-71
2022/08/17 03:16:33;;;;;;;22.55;13.38;;;24.80;65.20;;;;;;4959751;28;20123;-71
2022/08/17 03:18:59;;;;;;;21.00;13.52;;;24.80;65.20;;;;;;4993930;28;20031;-71
2022/08/17 03:21:25;;;;;;;17.67;12.55;;;24.70;65.10;;;;;;4993937;28;20062;-71
2022/08/17 03:23:50;;;;;;;17.35;13.00;;;24.70;65.10;;;;;;4994150;28;20022;-71
2022/08/17 03:26:16;;;;;;;19.23;13.10;;;24.70;65.20;;;;;;4975639;28;20109;-71
2022/08/17 03:28:42;;;;;;;18.83;13.30;;;24.60;65.20;;;;;;4944352;28;20061;-71
2022/08/17 03:31:08;;;;;;;19.92;13.32;;;24.70;65.40;;;;;;4976536;28;20495;-71
2022/08/17 03:33:34;;;;;;;21.67;13.55;;;24.60;65.50;;;;;;4960175;28;20030;-71
2022/08/17 03:36:00;;;;;;;22.08;13.55;;;24.60;65.40;;;;;;4974991;28;20022;-71
2022/08/17 03:38:26;;;;;;;18.85;12.65;;;24.60;65.40;;;;;;4975974;28;20046;-71
2022/08/17 03:40:52;;;;;;;17.00;12.68;;;24.60;65.30;;;;;;4993806;28;20486;-71
2022/08/17 03:43:20;;;;;;;17.50;12.85;;;24.60;66.00;;;;;;4992232;28;20030;-71
2022/08/17 03:57:04;;;;;;;19.20;13.30;;;24.60;65.60;;;;;;4975109;28;20041;-71
2022/08/17 03:59:30;;;;;;;22.90;13.10;;;24.60;65.60;;;;;;4975931;28;20403;-72
2022/08/17 04:02:00;;;;;;;18.45;13.10;;;24.60;65.80;;;;;;4943853;28;20033;-72
2022/08/17 04:04:26;;;;;;;23.88;13.57;;;24.60;65.90;;;;;;4993234;28;20069;-72
2022/08/17 04:06:52;;;;;;;18.88;13.30;;;24.60;65.80;;;;;;4992264;28;20439;-72
2022/08/17 04:09:18;;;;;;;20.15;13.43;;;24.60;65.70;;;;;;4975426;28;20394;-71
2022/08/17 04:11:44;;;;;;;20.85;13.25;;;24.60;65.60;;;;;;4959458;28;20042;-71
2022/08/17 04:14:09;;;;;;;23.25;13.68;;;24.60;65.60;;;;;;4975514;28;20030;-71
2022/08/17 04:16:36;;;;;;;18.63;13.18;;;24.60;65.60;;;;;;4992136;28;20026;-71
2022/08/17 04:19:03;;;;;;;17.77;13.00;;;24.60;65.80;;;;;;4992739;28;20107;-71
2022/08/17 04:21:28;;;;;;;19.30;14.18;;;24.60;65.70;;;;;;4992848;28;20030;-72
2022/08/17 04:23:56;;;;;;;18.88;13.70;;;24.60;65.70;;;;;;4992751;28;20034;-72
2022/08/17 04:26:22;;;;;;;18.83;13.52;;;24.60;65.90;;;;;;4991960;28;20474;-71
2022/08/17 04:28:48;;;;;;;22.88;13.60;;;24.60;66.10;;;;;;4992431;28;20034;-71
2022/08/17 04:31:15;;;;;;;17.40;12.88;;;24.50;66.10;;;;;;4992715;28;20125;-71
2022/08/17 04:33:44;;;;;;;20.98;14.02;;;24.50;66.10;;;;;;4959154;28;20034;-71
2022/08/17 04:36:13;;;;;;;19.00;13.35;;;24.60;66.10;;;;;;4991774;28;20031;-72
2022/08/17 04:38:41;;;;;;;21.30;13.63;;;24.60;66.20;;;;;;4959021;28;20058;-71
2022/08/17 04:43:57;;;;;;;20.33;13.18;;;24.60;66.30;;;;;;4992507;28;20462;-71
2022/08/17 04:46:26;;;;;;;18.73;13.35;;;24.60;66.40;;;;;;4992063;28;20030;-71
2022/08/17 04:48:54;;;;;;;17.48;13.13;;;24.60;66.60;;;;;;4992221;28;20030;-71
2022/08/17 04:51:33;;;;;;;25.25;20.25;;;24.60;66.80;;;;;;4975606;28;20030;-71
2022/08/17 04:54:04;;;;;;;32.87;26.07;;;24.50;66.90;;;;;;4958888;28;20061;-71
2022/08/17 04:56:31;;;;;;;30.27;24.20;;;24.50;66.90;;;;;;4991616;28;20452;-71
2022/08/17 04:59:01;;;;;;;26.75;20.88;;;24.60;66.90;;;;;;4943032;28;20076;-71
2022/08/17 05:01:30;;;;;;;24.38;18.88;;;24.60;66.80;;;;;;4952852;28;20027;-71
2022/08/17 05:03:58;;;;;;;22.77;17.53;;;24.60;66.70;;;;;;4954015;28;20070;-71
2022/08/17 05:06:26;;;;;;;24.23;16.70;;;24.70;67.10;;;;;;4938158;28;20066;-71
2022/08/17 05:08:53;;;;;;;21.90;16.33;;;24.60;67.10;;;;;;4955197;28;20037;-71
2022/08/17 05:11:19;;;;;;;24.75;19.42;;;24.60;67.00;;;;;;4939425;28;20034;-71
2022/08/17 05:13:46;;;;;;;26.40;18.67;;;24.60;67.10;;;;;;4939376;28;20031;-71
2022/08/17 05:16:12;;;;;;;24.08;17.95;;;24.70;67.10;;;;;;4971864;28;20050;-71
2022/08/17 05:18:38;;;;;;;21.42;17.85;;;24.70;67.10;;;;;;4955326;28;20065;-71
2022/08/17 05:21:05;;;;;;;22.02;16.13;;;24.70;67.00;;;;;;4955656;28;20027;-71
2022/08/17 05:23:32;;;;;;;22.48;15.45;;;24.70;67.00;;;;;;4955270;28;20486;-71
2022/08/17 05:25:58;;;;;;;24.27;19.20;;;24.70;66.80;;;;;;4954622;28;20445;-71
2022/08/17 05:28:26;;;;;;;29.30;20.65;;;24.80;67.00;;;;;;4923538;28;20038;-71
2022/08/17 05:30:53;;;;;;;27.38;21.00;;;24.70;66.90;;;;;;4939779;28;20047;-71
2022/08/17 05:33:25;;;;;;;29.00;23.95;;;24.80;67.90;;;;;;4939088;28;20035;-71
2022/08/17 05:35:53;;;;;;;27.80;21.90;;;24.70;67.30;;;;;;4954537;28;20031;-71
2022/08/17 05:38:22;;;;;;;31.42;21.90;;;24.70;67.20;;;;;;4972364;28;20106;-71
2022/08/17 05:40:47;;;;;;;22.02;17.67;;;24.80;67.00;;;;;;4955349;28;20031;-71
2022/08/17 05:43:22;;;;;;;28.02;17.88;;;24.80;66.90;;;;;;4972410;28;20037;-71
2022/08/17 05:45:54;;;;;;;22.27;15.98;;;24.80;66.90;;;;;;4954508;28;20043;-71
2022/08/17 05:48:20;;;;;;;23.90;16.35;;;24.80;67.00;;;;;;4955510;28;20035;-71
2022/08/17 05:51:01;;;;;;;25.73;16.00;;;24.80;66.90;;;;;;4972466;28;20034;-71
2022/08/17 05:53:43;;;;;;;20.90;16.27;;;24.80;66.90;;;;;;4972227;28;20467;-71
2022/08/17 05:56:20;;;;;;;20.65;15.32;;;24.80;66.80;;;;;;4971668;28;20479;-71
2022/08/17 05:58:58;;;;;;;21.88;16.17;;;24.80;66.80;;;;;;4972374;28;20026;-71
2022/08/17 06:02:02;;;;;;;19.13;15.02;;;24.80;66.60;;;;;;4958715;28;20035;-71
2022/08/17 06:04:50;;;;;;;18.98;14.73;;;24.90;66.60;;;;;;4949432;28;20042;-71
2022/08/17 06:07:44;;;;;;;20.52;14.73;;;24.90;66.60;;;;;;4975118;28;20541;-71
2022/08/17 06:10:18;;;;;;;20.48;13.82;;;24.90;66.70;;;;;;4931862;28;20039;-71
2022/08/17 06:13:14;;;;;;;20.85;14.20;;;24.90;66.60;;;;;;4975766;28;20050;-71
2022/08/17 06:16:10;;;;;;;22.52;13.68;;;24.90;66.80;;;;;;4974839;28;20027;-71
2022/08/17 06:18:44;;;;;;;20.70;15.88;;;24.90;67.30;;;;;;4958194;28;20038;-71
2022/08/17 06:21:15;;;;;;;24.80;16.40;;;25.00;66.50;;;;;;4975596;28;20026;-71
2022/08/17 06:23:47;;;;;;;19.48;15.27;;;25.00;66.00;;;;;;4975406;28;20051;-71
2022/08/17 06:26:33;;;;;;;21.58;15.20;;;25.00;64.40;;;;;;4974731;28;20085;-71
2022/08/17 06:29:03;;;;;;;20.23;16.30;;;25.00;64.30;;;;;;4970231;23;20027;-75
2022/08/17 06:31:33;;;;;;;28.38;16.67;;;25.00;64.20;;;;;;4936570;28;20082;-75
2022/08/17 06:34:01;;;;;;;20.48;15.30;;;25.00;63.90;;;;;;4965127;28;20032;-76
2022/08/17 06:36:59;;;;;;;22.00;13.90;;;25.00;64.00;;;;;;4955212;29;20023;-76
2022/08/17 06:39:43;;;;;;;21.02;12.13;;;25.00;63.20;;;;;;4955549;29;20042;-75
2022/08/17 06:42:46;;;;;;;20.02;11.13;;;25.00;62.00;;;;;;4956065;29;20031;-75
2022/08/17 06:45:32;;;;;;;17.27;10.15;;;25.00;61.00;;;;;;4955012;29;20036;-76
2022/08/17 06:48:05;;;;;;;15.07;9.48;;;25.00;61.10;;;;;;4955862;29;20031;-75
2022/08/17 06:50:41;;;;;;;19.55;10.90;;;25.10;61.10;;;;;;4955618;29;20031;-76
2022/08/17 06:53:19;;;;;;;15.75;10.13;;;25.10;61.90;;;;;;4938705;29;20051;-75
2022/08/17 06:56:12;;;;;;;17.85;9.98;;;25.20;62.00;;;;;;4954972;29;20031;-76
2022/08/17 06:58:40;;;;;;;15.68;10.85;;;25.20;61.80;;;;;;4952917;29;20062;-76
2022/08/17 07:01:25;;;;;;;19.45;11.15;;;25.30;62.00;;;;;;4955612;28;20027;-76
2022/08/17 07:04:20;;;;;;;19.00;10.77;;;25.30;61.70;;;;;;4938673;29;20363;-75
2022/08/17 07:06:51;;;;;;;19.65;10.68;;;25.30;61.60;;;;;;4921886;29;20365;-74
2022/08/17 07:09:30;;;;;;;16.38;9.43;;;25.50;60.90;;;;;;4955400;29;20618;-74
2022/08/17 07:12:13;;;;;;;16.55;9.65;;;25.50;61.00;;;;;;4954449;28;20496;-74
2022/08/17 07:14:50;;;;;;;19.00;10.20;;;25.50;61.20;;;;;;4955065;29;20042;-74
2022/08/17 07:17:19;;;;;;;15.88;10.10;;;25.50;60.80;;;;;;4954225;29;20429;-74
2022/08/17 07:19:47;;;;;;;14.32;9.10;;;25.50;59.80;;;;;;4955117;29;20435;-74
2022/08/17 07:22:50;;;;;;;17.57;9.17;;;25.40;59.00;;;;;;4955416;28;20031;-74
2022/08/17 07:25:20;;;;;;;13.32;8.48;;;25.50;59.70;;;;;;4929390;29;20731;-75
2022/08/17 07:28:06;;;;;;;14.30;7.85;;;25.40;58.60;;;;;;4955222;29;20030;-74
2022/08/17 07:30:40;;;;;;;12.85;7.18;;;25.50;58.70;;;;;;4921844;29;20544;-74
2022/08/17 07:33:10;;;;;;;12.73;6.75;;;25.50;57.50;;;;;;4937864;29;20566;-74
2022/08/17 07:35:43;;;;;;;14.65;6.80;;;25.60;59.00;;;;;;4937086;29;20160;-75
2022/08/17 07:38:09;;;;;;;13.05;6.78;;;25.60;57.30;;;;;;4937801;29;20031;-75
2022/08/17 07:41:00;;;;;;;13.35;7.10;;;25.70;58.30;;;;;;4937747;29;20023;-75
2022/08/17 07:43:30;;;;;;;12.98;6.60;;;25.80;58.40;;;;;;4954883;29;20385;-74
2022/08/17 07:48:54;;;;;;;11.80;6.57;;;25.80;57.80;;;;;;4937748;29;20043;-74
2022/08/17 07:51:38;;;;;;;12.75;5.97;;;25.90;57.30;;;;;;4954739;28;20040;-75
2022/08/17 07:54:25;;;;;;;10.18;5.55;;;25.80;55.10;;;;;;4954747;29;20035;-75
2022/08/17 07:56:51;;;;;;;13.68;5.80;;;25.80;54.70;;;;;;4953807;29;20031;-75
2022/08/17 07:59:21;;;;;;;14.05;5.72;;;25.80;54.10;;;;;;4937325;29;20027;-75
2022/08/17 08:01:53;;;;;;;8.68;5.30;;;25.80;53.70;;;;;;4954509;29;20312;-75
2022/08/17 08:04:45;;;;;;;9.88;5.10;;;25.80;54.90;;;;;;4954360;28;20084;-75
2022/08/17 08:07:27;;;;;;;15.57;5.35;;;25.90;55.60;;;;;;4953632;29;20031;-75
2022/08/17 08:10:08;;;;;;;8.07;4.40;;;25.90;54.70;;;;;;4954246;29;20031;-74
2022/08/17 08:12:46;;;;;;;10.05;4.80;;;26.00;54.80;;;;;;4937208;29;20406;-74
2022/08/17 08:15:21;;;;;;;8.60;4.93;;;26.00;53.50;;;;;;4953237;29;20101;-74
2022/08/17 08:17:56;;;;;;;11.82;4.90;;;26.00;52.80;;;;;;4954239;29;20078;-74
2022/08/17 08:20:31;;;;;;;16.00;5.50;;;26.00;52.60;;;;;;4954260;29;20114;-74
2022/08/17 08:23:35;;;;;;;8.05;4.40;;;26.10;54.20;;;;;;4953944;28;20058;-74
2022/08/17 08:26:01;;;;;;;8.75;4.25;;;26.30;53.50;;;;;;4873076;29;20040;-74
2022/08/17 08:29:02;;;;;;;8.93;4.88;;;26.30;53.70;;;;;;4941009;28;20039;-74
2022/08/17 08:31:43;;;;;;;8.10;4.47;;;26.30;53.60;;;;;;4915468;28;20510;-74
2022/08/17 08:34:23;;;;;;;8.82;4.50;;;26.30;53.80;;;;;;4955845;28;20035;-75
2022/08/17 08:37:31;;;;;;;9.15;4.38;;;26.30;53.70;;;;;;4954927;28;20035;-74
2022/08/17 08:40:44;;;;;;;9.82;4.20;;;26.30;53.80;;;;;;4955950;28;20082;-74
2022/08/17 08:43:28;;;;;;;8.18;4.10;;;26.40;53.40;;;;;;4973172;28;20022;-74
2022/08/17 08:46:01;;;;;;;7.78;3.90;;;26.40;52.70;;;;;;4955351;28;20126;-73
2022/08/17 08:48:43;;;;;;;7.00;3.78;;;26.40;52.70;;;;;;4973174;28;20534;-73
2022/08/17 08:51:50;;;;;;;7.97;4.10;;;26.40;52.00;;;;;;4968557;28;20046;-74
2022/08/17 08:54:19;;;;;;;6.25;3.70;;;26.40;51.30;;;;;;4972890;28;20050;-75
2022/08/17 08:56:53;;;;;;;9.25;4.03;;;26.30;49.90;;;;;;4971907;28;20078;-74
2022/08/17 08:59:43;;;;;;;10.88;4.55;;;26.30;49.40;;;;;;4972944;28;20023;-75
2022/08/17 09:02:45;;;;;;;10.80;4.20;;;26.40;49.80;;;;;;4955402;28;20446;-75
2022/08/17 09:05:46;;;;;;;7.20;4.20;;;26.30;50.10;;;;;;4971980;28;20407;-74
2022/08/17 09:08:26;;;;;;;8.50;4.25;;;26.40;49.80;;;;;;4972711;28;20348;-74
2022/08/17 09:11:17;;;;;;;9.00;4.70;;;26.40;49.50;;;;;;4973051;28;20423;-74
2022/08/17 09:14:08;;;;;;;10.88;4.50;;;26.50;49.40;;;;;;4955280;28;20452;-74
2022/08/17 09:16:53;;;;;;;6.45;4.38;;;26.50;50.20;;;;;;4971992;28;20035;-75
2022/08/17 09:19:33;;;;;;;9.68;4.78;;;26.50;50.60;;;;;;4972572;28;20038;-75
2022/08/17 09:22:16;;;;;;;8.88;4.47;;;26.70;51.30;;;;;;4972793;28;20529;-75
2022/08/17 09:24:47;;;;;;;7.38;4.63;;;26.70;49.80;;;;;;4955713;28;20420;-75
2022/08/17 09:27:17;;;;;;;10.75;4.35;;;26.60;50.60;;;;;;4954671;28;20038;-75
2022/08/17 09:29:56;;;;;;;7.15;4.30;;;26.60;51.80;;;;;;4972296;28;20104;-75
2022/08/17 09:32:43;;;;;;;9.00;3.85;;;26.70;51.10;;;;;;4972561;28;20034;-75
2022/08/17 09:35:15;;;;;;;7.07;4.40;;;27.00;50.70;;;;;;4973059;28;20542;-75
2022/08/17 09:37:58;;;;;;;8.75;4.47;;;27.00;50.40;;;;;;4976405;28;20084;-75
2022/08/17 09:40:27;;;;;;;8.10;4.32;;;27.00;50.40;;;;;;4975990;28;20102;-75
2022/08/17 09:43:03;;;;;;;8.97;4.20;;;27.00;50.50;;;;;;4958983;28;20042;-75
2022/08/17 09:45:43;;;;;;;7.80;3.47;;;26.90;50.60;;;;;;4975412;28;20081;-75
2022/08/17 09:48:27;;;;;;;5.88;3.97;;;26.90;49.40;;;;;;4976376;28;20085;-75
2022/08/17 09:51:21;;;;;;;10.65;3.88;;;26.90;48.70;;;;;;4975813;28;20030;-75
2022/08/17 09:53:47;;;;;;;7.75;4.40;;;26.90;49.80;;;;;;4958685;28;20045;-75
2022/08/17 09:56:28;;;;;;;8.45;4.03;;;26.90;51.00;;;;;;4958130;28;20391;-75
2022/08/17 09:59:12;;;;;;;10.73;3.85;;;27.00;50.90;;;;;;4958919;28;20035;-75
2022/08/17 10:02:05;;;;;;;7.97;4.00;;;27.00;49.90;;;;;;4958978;28;20027;-75
2022/08/17 10:04:39;;;;;;;8.60;4.20;;;27.10;49.20;;;;;;4976080;28;20074;-75
2022/08/17 10:07:20;;;;;;;7.53;3.83;;;27.20;48.60;;;;;;4942164;28;20101;-75
2022/08/17 10:10:10;;;;;;;8.32;3.40;;;27.10;48.10;;;;;;4975769;28;20046;-75
2022/08/17 10:12:42;;;;;;;;;;;27.00;48.50;;;;;;4959186;28;20062;-75
2022/08/17 10:15:37;;;;;;;10.52;3.75;;;26.90;49.10;;;;;;4974784;28;19914;-76
2022/08/17 10:18:20;;;;;;;9.07;3.70;;;27.00;49.00;;;;;;4958686;28;20031;-75
2022/08/17 10:20:51;;;;;;;7.97;3.72;;;27.00;48.20;;;;;;4958614;28;20031;-75
2022/08/17 10:26:32;;;;;;;18.08;11.75;;;27.00;48.50;;;;;;4914569;29;20107;-75
2022/08/17 10:29:05;;;;;;;31.30;26.17;;;26.80;48.60;;;;;;4915705;29;20061;-74
2022/08/17 10:31:54;;;;;;;17.98;11.60;;;26.80;49.10;;;;;;4947900;28;20055;-75
2022/08/17 10:34:58;;;;;;;21.00;17.33;;;26.90;49.20;;;;;;4942128;28;20034;-74
2022/08/17 10:37:42;;;;;;;13.40;9.07;;;27.10;48.00;;;;;;4974435;28;20035;-75
2022/08/17 10:40:31;;;;;;;15.80;9.70;;;27.10;47.30;;;;;;4942009;28;20077;-75
2022/08/17 10:43:18;;;;;;;24.13;16.73;;;27.00;46.50;;;;;;4975128;28;20033;-75
2022/08/17 10:46:23;;;;;;;14.40;10.15;;;27.00;47.20;;;;;;4956937;28;20266;-74
2022/08/17 10:49:17;;;;;;;11.43;6.38;;;27.00;47.30;;;;;;4974964;28;20027;-76
2022/08/17 10:51:46;;;;;;;20.75;9.88;;;27.00;46.80;;;;;;4975059;28;20062;-75
2022/08/17 10:54:24;;;;;;;10.93;5.68;;;27.00;48.20;;;;;;4957495;28;20464;-75
2022/08/17 10:56:55;;;;;;;10.07;7.30;;;27.00;45.90;;;;;;4957090;28;20418;-75
2022/08/17 10:59:33;;;;;;;10.80;6.50;;;27.10;47.00;;;;;;4957360;28;20561;-74
2022/08/17 11:02:18;;;;;;;13.18;8.77;;;27.10;46.60;;;;;;4955289;28;20390;-75
2022/08/17 11:04:56;;;;;;;9.88;4.30;;;27.00;46.70;;;;;;4921080;29;20480;-75
2022/08/17 11:07:37;;;;;;;8.63;3.72;;;27.10;46.40;;;;;;4954686;29;20098;-75
2022/08/17 11:10:38;;;;;;;7.45;4.00;;;27.30;45.50;;;;;;4938254;29;20114;-75
2022/08/17 11:13:04;;;;;;;6.93;3.90;;;27.30;45.90;;;;;;4955401;29;20031;-75
2022/08/17 11:15:50;;;;;;;6.65;3.70;;;27.40;46.50;;;;;;4937352;29;20047;-75
2022/08/17 11:18:37;;;;;;;4.60;2.97;;;27.30;46.20;;;;;;4955088;29;20054;-75
2022/08/17 11:21:06;;;;;;;5.72;3.30;;;;;;;;;;4938051;29;20455;-75
2022/08/17 11:24:01;;;;;;;10.55;3.47;;;27.50;44.20;;;;;;4955085;29;20480;-75
2022/08/17 11:26:30;;;;;;;7.93;3.83;;;27.50;44.20;;;;;;4937267;29;20027;-75
2022/08/17 11:29:16;;;;;;;26.40;20.13;;;27.50;44.90;;;;;;4954881;28;20039;-76
2022/08/17 11:31:59;;;;;;;13.15;5.05;;;27.50;44.70;;;;;;4955105;29;20035;-75
2022/08/17 11:34:27;;;;;;;7.28;3.08;;;27.50;43.00;;;;;;4906225;29;20110;-75
2022/08/17 11:37:00;;;;;;;8.93;3.28;;;27.50;42.20;;;;;;4937040;29;20028;-76
2022/08/17 11:39:55;;;;;;;10.40;4.05;;;27.30;43.70;;;;;;4937384;29;20028;-76
2022/08/17 11:43:12;;;;;;;8.60;4.00;;;27.30;44.70;;;;;;4952541;29;20078;-76
2022/08/17 11:45:41;;;;;;;8.77;4.47;;;27.40;45.70;;;;;;4911016;29;20075;-76
2022/08/17 11:53:50;;;;;;;10.10;4.38;;;27.70;44.70;;;;;;4954458;29;20028;-76
2022/08/17 11:56:39;;;;;;;8.18;3.88;;;27.70;44.90;;;;;;4953730;29;20476;-76
2022/08/17 11:59:31;;;;;;;8.00;3.92;;;27.90;45.10;;;;;;4936829;29;20050;-76
2022/08/17 12:02:02;;;;;;;25.25;20.23;;;27.90;44.80;;;;;;4953468;28;20488;-76
2022/08/17 12:04:33;;;;;;;10.70;5.13;;;27.90;43.80;;;;;;4953330;28;20381;-77
2022/08/17 12:07:09;;;;;;;18.67;12.15;;;27.80;44.60;;;;;;4936510;29;20057;-76
2022/08/17 12:09:42;;;;;;;12.25;6.57;;;27.90;44.30;;;;;;4954437;29;20366;-77
2022/08/17 12:12:21;;;;;;;8.63;4.68;;;27.80;44.80;;;;;;4954288;29;20207;-76
2022/08/17 12:14:53;;;;;;;7.83;4.37;;;28.00;45.00;;;;;;4936949;29;20038;-77
2022/08/17 12:17:22;;;;;;;5.97;3.45;;;28.00;45.30;;;;;;4920330;29;20039;-76
2022/08/17 12:19:47;;;;;;;8.80;3.25;;;27.90;44.60;;;;;;4937062;29;20115;-76
2022/08/17 12:22:34;;;;;;;6.18;3.13;;;28.10;42.70;;;;;;4954058;29;20055;-76
2022/08/17 12:25:31;;;;;;;6.78;3.33;;;28.10;42.40;;;;;;4936821;29;20399;-76
2022/08/17 12:27:58;;;;;;;11.30;3.90;;;28.00;43.20;;;;;;4954065;29;20510;-76
2022/08/17 12:30:23;;;;;;;12.82;3.38;;;27.80;43.60;;;;;;4966153;23;20063;-70
2022/08/17 12:32:49;;;;;;;8.93;3.22;;;27.90;43.00;;;;;;4948664;28;20064;-69
2022/08/17 12:35:31;;;;;;;7.88;3.42;;;27.90;42.50;;;;;;4952623;28;20034;-71
2022/08/17 12:37:59;;;;;;;6.72;3.20;;;28.00;42.60;;;;;;4953728;28;20086;-70
2022/08/17 12:40:28;;;;;;;5.13;3.05;;;27.80;43.80;;;;;;4942711;29;20063;-71
2022/08/17 12:43:02;;;;;;;5.32;2.95;;;27.90;43.20;;;;;;4933399;29;20030;-70
2022/08/17 12:45:40;;;;;;;6.57;3.20;;;28.00;43.10;;;;;;4934341;29;20044;-71
2022/08/17 12:48:07;;;;;;;8.32;3.08;;;28.00;42.50;;;;;;4934532;29;20496;-71
2022/08/17 12:50:35;;;;;;;4.93;2.88;;;28.20;42.30;;;;;;4934659;29;20041;-71
2022/08/17 12:53:02;;;;;;;4.55;3.10;;;28.30;42.30;;;;;;4933348;29;20043;-69
2022/08/17 12:55:34;;;;;;;5.00;3.25;;;28.30;41.90;;;;;;4933729;29;20648;-71
2022/08/17 12:58:00;;;;;;;8.65;3.30;;;28.20;41.70;;;;;;4933397;29;20032;-71
2022/08/17 13:00:30;;;;;;;8.40;3.40;;;28.10;41.90;;;;;;4949035;29;20039;-71
2022/08/17 13:03:22;;;;;;;;;;;28.00;42.70;;;;;;4933356;29;20030;-71
2022/08/17 13:05:51;;;;;;;6.35;3.80;;;28.00;43.60;;;;;;4929496;29;20288;-70
2022/08/17 13:08:28;;;;;;;9.17;3.80;;;27.90;44.10;;;;;;4934397;29;20035;-70
2022/08/17 13:11:22;;;;;;;6.80;3.50;;;27.90;43.60;;;;;;4935684;29;20122;-72
2022/08/17 13:13:54;;;;;;;6.28;3.30;;;28.00;43.40;;;;;;4937912;29;20130;-71
2022/08/17 13:16:29;;;;;;;11.60;3.60;;;28.20;42.90;;;;;;4936453;29;20031;-71
2022/08/17 13:19:11;;;;;;;22.65;3.20;;;28.20;42.60;;;;;;4921531;29;20043;-70
2022/08/17 13:21:45;;;;;;;4.63;3.13;;;28.20;41.60;;;;;;4936306;29;20027;-71
2022/08/17 13:24:10;;;;;;;10.32;2.92;;;28.00;42.60;;;;;;4935185;29;20020;-72
2022/08/17 13:26:41;;;;;;;7.90;3.35;;;28.00;41.80;;;;;;4933649;29;20046;-70
2022/08/17 13:29:27;;;;;;;9.77;3.42;;;28.10;41.40;;;;;;4936143;29;20032;-69
2022/08/17 13:32:16;;;;;;;10.93;3.70;;;28.30;41.50;;;;;;4935466;29;20101;-71
2022/08/17 13:34:48;;;;;;;8.50;3.55;;;28.20;43.50;;;;;;4931663;29;20113;-70
2022/08/17 13:37:29;;;;;;;9.13;3.75;;;28.20;43.60;;;;;;4917911;29;20031;-71
2022/08/17 13:39:57;;;;;;;10.88;3.80;;;28.20;44.40;;;;;;4932271;29;20035;-71